UATT 052100Z 02004MPS CAVOK 15/10 Q1008 NOSIG RMK QFE736/0982
QNH:(hPa/inHg/mmHg)1008 / 29.77 / 756
QFE:(hPa/inHg/mmHg)981 / 28.96 / 736
Temperature15
Dew Point10
Visibility> 10000
WeatherCAVOK
Cloud Cover
Transition Altitude10000 ft.
Transition LevelFL120
SQUAWK